Weather at Plovdiv International Airport

Public forecast

Using degrees Celsius for public forecast. Weather courtesy of forecast.io.

Current aviation weather report (METAR) for Plovdiv International Airport

2023/03/29 00:30 (retrieved 37 minutes ago)

LBPD 290030Z AUTO 27019KT 9999 FEW110/// 04/M07 Q1019

Closest aviation forecast (TAF) to Plovdiv International Airport

Forecast is more than 12 hours old.

Closest forecast is Kuk√ęs International Airport, 197.7 nm (366.1 km) W.

2023/03/28 12:00 Ammendment (retrieved 13 hours ago)

TAF AMD LAKU 281615Z 2812/2912 CNL